sensor_id;sensor_type;location;lat;lon;timestamp;P1;durP1;ratioP1;P2;durP2;ratioP2
295;SDS011;132;48.770;9.200;2022-08-02T00:00:48;2.70;;;2.43;;
295;SDS011;132;48.770;9.200;2022-08-02T00:03:35;3.00;;;2.47;;
295;SDS011;132;48.770;9.200;2022-08-02T00:06:21;2.57;;;2.33;;
295;SDS011;132;48.770;9.200;2022-08-02T00:09:08;3.87;;;2.27;;
295;SDS011;132;48.770;9.200;2022-08-02T00:11:54;2.70;;;2.30;;
295;SDS011;132;48.770;9.200;2022-08-02T00:14:41;5.10;;;2.80;;
295;SDS011;132;48.770;9.200;2022-08-02T00:17:28;3.60;;;2.63;;
295;SDS011;132;48.770;9.200;2022-08-02T00:20:15;4.93;;;3.10;;
295;SDS011;132;48.770;9.200;2022-08-02T00:23:01;5.60;;;3.60;;
295;SDS011;132;48.770;9.200;2022-08-02T00:25:48;3.97;;;3.00;;
295;SDS011;132;48.770;9.200;2022-08-02T00:28:35;4.03;;;3.30;;
295;SDS011;132;48.770;9.200;2022-08-02T00:31:22;4.40;;;3.40;;
295;SDS011;132;48.770;9.200;2022-08-02T00:34:09;5.00;;;3.27;;
295;SDS011;132;48.770;9.200;2022-08-02T00:36:55;4.87;;;3.20;;
295;SDS011;132;48.770;9.200;2022-08-02T00:39:42;5.07;;;3.30;;
295;SDS011;132;48.770;9.200;2022-08-02T00:42:29;3.60;;;3.30;;
295;SDS011;132;48.770;9.200;2022-08-02T00:45:15;4.33;;;3.23;;
295;SDS011;132;48.770;9.200;2022-08-02T00:48:03;4.13;;;3.40;;
295;SDS011;132;48.770;9.200;2022-08-02T00:50:50;3.53;;;3.00;;
295;SDS011;132;48.770;9.200;2022-08-02T00:53:37;3.97;;;3.10;;
295;SDS011;132;48.770;9.200;2022-08-02T00:56:24;3.83;;;3.13;;
295;SDS011;132;48.770;9.200;2022-08-02T00:59:11;4.70;;;3.10;;
295;SDS011;132;48.770;9.200;2022-08-02T01:01:57;5.23;;;3.17;;
295;SDS011;132;48.770;9.200;2022-08-02T01:04:44;3.83;;;2.90;;
295;SDS011;132;48.770;9.200;2022-08-02T01:07:30;3.03;;;2.83;;
295;SDS011;132;48.770;9.200;2022-08-02T01:10:17;4.03;;;3.10;;
295;SDS011;132;48.770;9.200;2022-08-02T01:13:04;6.03;;;3.10;;
295;SDS011;132;48.770;9.200;2022-08-02T01:15:52;5.40;;;2.93;;
295;SDS011;132;48.770;9.200;2022-08-02T01:18:50;4.43;;;3.07;;
295;SDS011;132;48.770;9.200;2022-08-02T01:21:47;4.40;;;3.00;;
295;SDS011;132;48.770;9.200;2022-08-02T01:25:03;4.23;;;2.80;;
295;SDS011;132;48.770;9.200;2022-08-02T01:31:07;5.30;;;2.70;;
295;SDS011;132;48.770;9.200;2022-08-02T01:34:02;5.70;;;3.20;;
295;SDS011;132;48.770;9.200;2022-08-02T01:40:23;4.10;;;2.90;;
295;SDS011;132;48.770;9.200;2022-08-02T01:43:14;9.33;;;2.80;;
295;SDS011;132;48.770;9.200;2022-08-02T01:46:02;3.07;;;2.60;;
295;SDS011;132;48.770;9.200;2022-08-02T01:48:50;2.73;;;2.60;;
295;SDS011;132;48.770;9.200;2022-08-02T01:51:39;3.60;;;2.67;;
295;SDS011;132;48.770;9.200;2022-08-02T01:54:51;3.30;;;2.77;;
295;SDS011;132;48.770;9.200;2022-08-02T01:57:48;3.33;;;2.60;;
295;SDS011;132;48.770;9.200;2022-08-02T02:00:39;3.07;;;2.83;;
295;SDS011;132;48.770;9.200;2022-08-02T02:03:26;4.03;;;2.73;;
295;SDS011;132;48.770;9.200;2022-08-02T02:06:16;8.67;;;2.90;;
295;SDS011;132;48.770;9.200;2022-08-02T02:09:04;4.77;;;2.90;;
295;SDS011;132;48.770;9.200;2022-08-02T02:11:51;4.23;;;2.80;;
295;SDS011;132;48.770;9.200;2022-08-02T02:14:40;4.50;;;3.20;;
295;SDS011;132;48.770;9.200;2022-08-02T02:17:28;4.03;;;2.50;;
295;SDS011;132;48.770;9.200;2022-08-02T02:20:17;4.80;;;2.90;;
295;SDS011;132;48.770;9.200;2022-08-02T02:23:04;2.83;;;2.63;;
295;SDS011;132;48.770;9.200;2022-08-02T02:25:52;4.40;;;2.93;;
295;SDS011;132;48.770;9.200;2022-08-02T02:28:40;3.00;;;2.80;;
295;SDS011;132;48.770;9.200;2022-08-02T02:31:31;3.30;;;2.90;;
295;SDS011;132;48.770;9.200;2022-08-02T02:34:28;5.83;;;2.70;;
295;SDS011;132;48.770;9.200;2022-08-02T02:37:20;5.43;;;2.70;;
295;SDS011;132;48.770;9.200;2022-08-02T02:40:08;6.43;;;3.23;;
295;SDS011;132;48.770;9.200;2022-08-02T02:42:57;4.10;;;2.97;;
295;SDS011;132;48.770;9.200;2022-08-02T02:45:45;3.80;;;2.70;;
295;SDS011;132;48.770;9.200;2022-08-02T02:48:33;3.47;;;2.73;;
295;SDS011;132;48.770;9.200;2022-08-02T02:51:21;3.13;;;2.80;;
295;SDS011;132;48.770;9.200;2022-08-02T02:54:09;9.90;;;3.20;;
295;SDS011;132;48.770;9.200;2022-08-02T02:56:58;5.40;;;2.90;;
295;SDS011;132;48.770;9.200;2022-08-02T02:59:45;2.90;;;2.63;;
295;SDS011;132;48.770;9.200;2022-08-02T03:02:32;3.97;;;3.10;;
295;SDS011;132;48.770;9.200;2022-08-02T03:05:19;3.10;;;2.83;;
295;SDS011;132;48.770;9.200;2022-08-02T03:08:06;3.60;;;2.87;;
295;SDS011;132;48.770;9.200;2022-08-02T03:10:53;5.13;;;2.70;;
295;SDS011;132;48.770;9.200;2022-08-02T03:13:40;3.77;;;2.90;;
295;SDS011;132;48.770;9.200;2022-08-02T03:16:27;4.47;;;2.80;;
295;SDS011;132;48.770;9.200;2022-08-02T03:19:15;5.97;;;2.60;;
295;SDS011;132;48.770;9.200;2022-08-02T03:22:03;8.10;;;3.10;;
295;SDS011;132;48.770;9.200;2022-08-02T03:24:49;7.83;;;3.17;;
295;SDS011;132;48.770;9.200;2022-08-02T03:27:36;8.27;;;3.33;;
295;SDS011;132;48.770;9.200;2022-08-02T03:30:23;4.50;;;3.20;;
295;SDS011;132;48.770;9.200;2022-08-02T03:33:12;4.50;;;2.87;;
295;SDS011;132;48.770;9.200;2022-08-02T03:36:04;4.30;;;3.00;;
295;SDS011;132;48.770;9.200;2022-08-02T03:38:55;3.40;;;2.93;;
295;SDS011;132;48.770;9.200;2022-08-02T03:41:42;5.53;;;3.70;;
295;SDS011;132;48.770;9.200;2022-08-02T03:44:29;5.80;;;3.10;;
295;SDS011;132;48.770;9.200;2022-08-02T03:47:18;3.30;;;3.03;;
295;SDS011;132;48.770;9.200;2022-08-02T03:50:06;5.43;;;3.70;;
295;SDS011;132;48.770;9.200;2022-08-02T03:52:55;4.10;;;3.50;;
295;SDS011;132;48.770;9.200;2022-08-02T03:55:43;7.13;;;3.20;;
295;SDS011;132;48.770;9.200;2022-08-02T03:58:30;5.73;;;3.30;;
295;SDS011;132;48.770;9.200;2022-08-02T04:01:16;4.13;;;3.27;;
295;SDS011;132;48.770;9.200;2022-08-02T04:04:03;3.97;;;3.37;;
295;SDS011;132;48.770;9.200;2022-08-02T04:06:50;6.90;;;3.50;;
295;SDS011;132;48.770;9.200;2022-08-02T04:09:37;4.30;;;3.43;;
295;SDS011;132;48.770;9.200;2022-08-02T04:12:24;8.30;;;3.67;;
295;SDS011;132;48.770;9.200;2022-08-02T04:15:11;5.47;;;3.50;;
295;SDS011;132;48.770;9.200;2022-08-02T04:17:59;4.93;;;3.53;;
295;SDS011;132;48.770;9.200;2022-08-02T04:20:48;4.57;;;3.67;;
295;SDS011;132;48.770;9.200;2022-08-02T04:23:38;5.00;;;3.67;;
295;SDS011;132;48.770;9.200;2022-08-02T04:26:27;6.00;;;3.50;;
295;SDS011;132;48.770;9.200;2022-08-02T04:29:15;4.60;;;3.33;;
295;SDS011;132;48.770;9.200;2022-08-02T04:32:03;5.50;;;3.83;;
295;SDS011;132;48.770;9.200;2022-08-02T04:34:51;5.80;;;3.50;;
295;SDS011;132;48.770;9.200;2022-08-02T04:37:39;6.27;;;3.20;;
295;SDS011;132;48.770;9.200;2022-08-02T04:40:26;6.43;;;3.40;;
295;SDS011;132;48.770;9.200;2022-08-02T04:43:13;4.87;;;3.70;;
295;SDS011;132;48.770;9.200;2022-08-02T04:45:59;4.60;;;3.00;;
295;SDS011;132;48.770;9.200;2022-08-02T04:48:49;8.23;;;3.80;;
295;SDS011;132;48.770;9.200;2022-08-02T04:51:37;5.47;;;3.30;;
295;SDS011;132;48.770;9.200;2022-08-02T04:54:27;7.23;;;3.33;;
295;SDS011;132;48.770;9.200;2022-08-02T04:57:14;5.37;;;3.53;;
295;SDS011;132;48.770;9.200;2022-08-02T05:00:19;5.17;;;3.50;;
295;SDS011;132;48.770;9.200;2022-08-02T05:03:06;3.50;;;3.30;;
295;SDS011;132;48.770;9.200;2022-08-02T05:05:53;3.67;;;3.07;;
295;SDS011;132;48.770;9.200;2022-08-02T05:08:40;8.83;;;3.40;;
295;SDS011;132;48.770;9.200;2022-08-02T05:11:27;3.30;;;3.10;;
295;SDS011;132;48.770;9.200;2022-08-02T05:14:13;5.27;;;3.00;;
295;SDS011;132;48.770;9.200;2022-08-02T05:17:00;4.07;;;3.00;;
295;SDS011;132;48.770;9.200;2022-08-02T05:19:47;5.43;;;3.17;;
295;SDS011;132;48.770;9.200;2022-08-02T05:22:33;3.90;;;3.30;;
295;SDS011;132;48.770;9.200;2022-08-02T05:25:20;3.40;;;3.10;;
295;SDS011;132;48.770;9.200;2022-08-02T05:28:06;4.10;;;3.10;;
295;SDS011;132;48.770;9.200;2022-08-02T05:30:53;5.57;;;3.30;;
295;SDS011;132;48.770;9.200;2022-08-02T05:33:39;3.97;;;3.50;;
295;SDS011;132;48.770;9.200;2022-08-02T05:36:27;3.93;;;3.17;;
295;SDS011;132;48.770;9.200;2022-08-02T05:39:14;5.30;;;3.70;;
295;SDS011;132;48.770;9.200;2022-08-02T05:42:01;6.50;;;4.00;;
295;SDS011;132;48.770;9.200;2022-08-02T05:44:47;4.20;;;3.70;;
295;SDS011;132;48.770;9.200;2022-08-02T05:47:34;5.80;;;3.43;;
295;SDS011;132;48.770;9.200;2022-08-02T05:50:20;6.93;;;3.90;;
295;SDS011;132;48.770;9.200;2022-08-02T05:59:16;5.03;;;3.40;;
295;SDS011;132;48.770;9.200;2022-08-02T06:02:28;6.03;;;4.10;;
295;SDS011;132;48.770;9.200;2022-08-02T06:05:20;9.60;;;3.77;;
295;SDS011;132;48.770;9.200;2022-08-02T06:08:07;9.70;;;3.87;;
295;SDS011;132;48.770;9.200;2022-08-02T06:10:55;6.07;;;3.60;;
295;SDS011;132;48.770;9.200;2022-08-02T06:13:44;4.87;;;3.77;;
295;SDS011;132;48.770;9.200;2022-08-02T06:16:32;4.53;;;3.70;;
295;SDS011;132;48.770;9.200;2022-08-02T06:19:19;5.20;;;3.80;;
295;SDS011;132;48.770;9.200;2022-08-02T06:22:06;5.87;;;3.67;;
295;SDS011;132;48.770;9.200;2022-08-02T06:25:03;6.30;;;4.00;;
295;SDS011;132;48.770;9.200;2022-08-02T06:27:51;5.13;;;4.43;;
295;SDS011;132;48.770;9.200;2022-08-02T06:30:38;6.03;;;3.80;;
295;SDS011;132;48.770;9.200;2022-08-02T06:33:26;10.17;;;4.07;;
295;SDS011;132;48.770;9.200;2022-08-02T06:36:18;6.80;;;4.60;;
295;SDS011;132;48.770;9.200;2022-08-02T06:39:30;7.80;;;4.30;;
295;SDS011;132;48.770;9.200;2022-08-02T06:42:30;6.00;;;4.33;;
295;SDS011;132;48.770;9.200;2022-08-02T06:45:33;9.07;;;4.33;;
295;SDS011;132;48.770;9.200;2022-08-02T06:48:20;6.50;;;4.93;;
295;SDS011;132;48.770;9.200;2022-08-02T06:51:06;8.43;;;4.80;;
295;SDS011;132;48.770;9.200;2022-08-02T06:53:53;9.93;;;4.97;;
295;SDS011;132;48.770;9.200;2022-08-02T06:56:40;6.53;;;3.97;;
295;SDS011;132;48.770;9.200;2022-08-02T06:59:26;7.37;;;4.40;;
295;SDS011;132;48.770;9.200;2022-08-02T07:02:13;7.57;;;4.67;;
295;SDS011;132;48.770;9.200;2022-08-02T07:05:00;4.40;;;3.93;;
295;SDS011;132;48.770;9.200;2022-08-02T07:07:46;9.27;;;4.30;;
295;SDS011;132;48.770;9.200;2022-08-02T07:10:33;7.63;;;4.20;;
295;SDS011;132;48.770;9.200;2022-08-02T07:13:20;6.73;;;4.80;;
295;SDS011;132;48.770;9.200;2022-08-02T07:16:06;7.57;;;4.80;;
295;SDS011;132;48.770;9.200;2022-08-02T07:18:53;6.63;;;4.70;;
295;SDS011;132;48.770;9.200;2022-08-02T07:21:39;5.93;;;4.37;;
295;SDS011;132;48.770;9.200;2022-08-02T07:24:26;5.40;;;4.20;;
295;SDS011;132;48.770;9.200;2022-08-02T07:27:13;9.60;;;4.50;;
295;SDS011;132;48.770;9.200;2022-08-02T07:29:59;5.87;;;4.23;;
295;SDS011;132;48.770;9.200;2022-08-02T07:32:46;10.17;;;5.40;;
295;SDS011;132;48.770;9.200;2022-08-02T07:35:33;9.57;;;4.57;;
295;SDS011;132;48.770;9.200;2022-08-02T07:38:20;8.50;;;5.00;;
295;SDS011;132;48.770;9.200;2022-08-02T07:41:09;6.93;;;4.73;;
295;SDS011;132;48.770;9.200;2022-08-02T07:43:56;6.60;;;4.10;;
295;SDS011;132;48.770;9.200;2022-08-02T07:46:43;9.17;;;4.23;;
295;SDS011;132;48.770;9.200;2022-08-02T07:49:30;5.80;;;4.43;;
295;SDS011;132;48.770;9.200;2022-08-02T07:52:17;5.93;;;4.17;;
295;SDS011;132;48.770;9.200;2022-08-02T07:55:04;9.10;;;4.70;;
295;SDS011;132;48.770;9.200;2022-08-02T07:57:51;6.83;;;4.90;;
295;SDS011;132;48.770;9.200;2022-08-02T08:00:38;11.33;;;4.67;;
295;SDS011;132;48.770;9.200;2022-08-02T08:03:25;8.50;;;5.20;;
295;SDS011;132;48.770;9.200;2022-08-02T08:06:12;9.67;;;4.53;;
295;SDS011;132;48.770;9.200;2022-08-02T08:08:59;6.73;;;5.03;;
295;SDS011;132;48.770;9.200;2022-08-02T08:11:46;9.90;;;4.70;;
295;SDS011;132;48.770;9.200;2022-08-02T08:14:32;7.70;;;5.57;;
295;SDS011;132;48.770;9.200;2022-08-02T08:17:19;7.40;;;5.40;;
295;SDS011;132;48.770;9.200;2022-08-02T08:20:06;7.53;;;5.00;;
295;SDS011;132;48.770;9.200;2022-08-02T08:22:53;4.83;;;4.30;;
295;SDS011;132;48.770;9.200;2022-08-02T08:25:39;7.57;;;4.70;;
295;SDS011;132;48.770;9.200;2022-08-02T08:28:27;7.17;;;4.40;;
295;SDS011;132;48.770;9.200;2022-08-02T08:31:13;7.10;;;5.23;;
295;SDS011;132;48.770;9.200;2022-08-02T08:34:00;5.43;;;4.33;;
295;SDS011;132;48.770;9.200;2022-08-02T08:36:47;6.90;;;4.90;;
295;SDS011;132;48.770;9.200;2022-08-02T08:39:34;6.33;;;4.33;;
295;SDS011;132;48.770;9.200;2022-08-02T08:42:20;7.27;;;4.30;;
295;SDS011;132;48.770;9.200;2022-08-02T08:45:07;6.60;;;5.03;;
295;SDS011;132;48.770;9.200;2022-08-02T08:48:05;6.47;;;4.50;;
295;SDS011;132;48.770;9.200;2022-08-02T08:53:48;7.90;;;5.17;;
295;SDS011;132;48.770;9.200;2022-08-02T08:56:39;8.20;;;4.50;;
295;SDS011;132;48.770;9.200;2022-08-02T08:59:27;5.10;;;4.80;;
295;SDS011;132;48.770;9.200;2022-08-02T09:02:13;7.37;;;5.00;;
295;SDS011;132;48.770;9.200;2022-08-02T09:05:00;6.60;;;5.33;;
295;SDS011;132;48.770;9.200;2022-08-02T09:07:48;7.20;;;5.10;;
295;SDS011;132;48.770;9.200;2022-08-02T09:13:24;6.90;;;5.30;;
295;SDS011;132;48.770;9.200;2022-08-02T09:16:15;5.87;;;5.13;;
295;SDS011;132;48.770;9.200;2022-08-02T09:19:23;5.90;;;5.10;;
295;SDS011;132;48.770;9.200;2022-08-02T09:22:12;9.10;;;4.70;;
295;SDS011;132;48.770;9.200;2022-08-02T09:24:59;7.97;;;5.30;;
295;SDS011;132;48.770;9.200;2022-08-02T09:27:47;4.90;;;4.60;;
295;SDS011;132;48.770;9.200;2022-08-02T09:30:41;6.70;;;4.90;;
295;SDS011;132;48.770;9.200;2022-08-02T09:33:28;4.87;;;4.20;;
295;SDS011;132;48.770;9.200;2022-08-02T09:36:15;5.67;;;4.80;;
295;SDS011;132;48.770;9.200;2022-08-02T09:39:03;8.23;;;5.10;;
295;SDS011;132;48.770;9.200;2022-08-02T09:41:51;6.00;;;5.10;;
295;SDS011;132;48.770;9.200;2022-08-02T09:44:55;7.60;;;5.17;;
295;SDS011;132;48.770;9.200;2022-08-02T09:47:43;5.30;;;4.60;;
295;SDS011;132;48.770;9.200;2022-08-02T09:50:39;6.13;;;4.70;;
295;SDS011;132;48.770;9.200;2022-08-02T09:53:27;6.30;;;5.33;;
295;SDS011;132;48.770;9.200;2022-08-02T09:56:16;6.80;;;5.10;;
295;SDS011;132;48.770;9.200;2022-08-02T09:59:06;9.30;;;4.97;;
295;SDS011;132;48.770;9.200;2022-08-02T10:01:54;13.43;;;5.10;;
295;SDS011;132;48.770;9.200;2022-08-02T10:04:42;10.93;;;5.67;;
295;SDS011;132;48.770;9.200;2022-08-02T10:07:28;7.90;;;5.57;;
295;SDS011;132;48.770;9.200;2022-08-02T10:10:16;8.53;;;5.43;;
295;SDS011;132;48.770;9.200;2022-08-02T10:13:02;7.47;;;5.03;;
295;SDS011;132;48.770;9.200;2022-08-02T10:15:50;12.07;;;5.60;;
295;SDS011;132;48.770;9.200;2022-08-02T10:18:37;7.30;;;5.17;;
295;SDS011;132;48.770;9.200;2022-08-02T10:21:42;5.90;;;5.10;;
295;SDS011;132;48.770;9.200;2022-08-02T10:24:40;8.80;;;4.40;;
295;SDS011;132;48.770;9.200;2022-08-02T10:27:27;5.80;;;4.50;;
295;SDS011;132;48.770;9.200;2022-08-02T10:30:14;11.30;;;5.10;;
295;SDS011;132;48.770;9.200;2022-08-02T10:33:01;5.80;;;4.40;;
295;SDS011;132;48.770;9.200;2022-08-02T10:35:50;7.50;;;4.43;;
295;SDS011;132;48.770;9.200;2022-08-02T10:38:38;5.20;;;4.53;;
295;SDS011;132;48.770;9.200;2022-08-02T10:41:41;8.33;;;4.67;;
295;SDS011;132;48.770;9.200;2022-08-02T10:44:36;5.33;;;4.50;;
295;SDS011;132;48.770;9.200;2022-08-02T10:47:23;6.67;;;4.90;;
295;SDS011;132;48.770;9.200;2022-08-02T10:50:11;5.90;;;4.80;;
295;SDS011;132;48.770;9.200;2022-08-02T10:53:31;4.63;;;3.80;;
295;SDS011;132;48.770;9.200;2022-08-02T10:56:12;5.63;;;4.07;;
295;SDS011;132;48.770;9.200;2022-08-02T10:59:22;5.27;;;4.80;;
295;SDS011;132;48.770;9.200;2022-08-02T11:02:13;5.27;;;4.83;;
295;SDS011;132;48.770;9.200;2022-08-02T11:05:31;5.73;;;4.30;;
295;SDS011;132;48.770;9.200;2022-08-02T11:08:20;11.00;;;4.90;;
295;SDS011;132;48.770;9.200;2022-08-02T11:22:57;7.10;;;4.77;;
295;SDS011;132;48.770;9.200;2022-08-02T11:29:16;6.50;;;4.50;;
295;SDS011;132;48.770;9.200;2022-08-02T11:32:04;6.43;;;4.47;;
295;SDS011;132;48.770;9.200;2022-08-02T11:34:52;5.10;;;4.40;;
295;SDS011;132;48.770;9.200;2022-08-02T11:37:40;7.87;;;4.60;;
295;SDS011;132;48.770;9.200;2022-08-02T11:40:28;6.60;;;4.93;;
295;SDS011;132;48.770;9.200;2022-08-02T11:43:23;6.50;;;4.60;;
295;SDS011;132;48.770;9.200;2022-08-02T11:46:13;5.60;;;4.83;;
295;SDS011;132;48.770;9.200;2022-08-02T11:49:10;5.23;;;4.50;;
295;SDS011;132;48.770;9.200;2022-08-02T11:52:02;6.30;;;4.13;;
295;SDS011;132;48.770;9.200;2022-08-02T11:54:50;6.43;;;4.80;;
295;SDS011;132;48.770;9.200;2022-08-02T11:57:36;8.67;;;4.40;;
295;SDS011;132;48.770;9.200;2022-08-02T12:00:23;6.63;;;4.30;;
295;SDS011;132;48.770;9.200;2022-08-02T12:03:09;5.90;;;4.50;;
295;SDS011;132;48.770;9.200;2022-08-02T12:05:56;7.67;;;4.87;;
295;SDS011;132;48.770;9.200;2022-08-02T12:08:44;6.37;;;4.70;;
295;SDS011;132;48.770;9.200;2022-08-02T12:11:31;4.73;;;4.47;;
295;SDS011;132;48.770;9.200;2022-08-02T12:14:18;7.20;;;4.40;;
295;SDS011;132;48.770;9.200;2022-08-02T12:17:05;7.00;;;5.23;;
295;SDS011;132;48.770;9.200;2022-08-02T12:20:10;8.50;;;5.23;;
295;SDS011;132;48.770;9.200;2022-08-02T12:23:00;5.60;;;5.13;;
295;SDS011;132;48.770;9.200;2022-08-02T12:26:03;8.07;;;5.67;;
295;SDS011;132;48.770;9.200;2022-08-02T12:28:55;9.03;;;5.30;;
295;SDS011;132;48.770;9.200;2022-08-02T12:31:44;6.63;;;5.00;;
295;SDS011;132;48.770;9.200;2022-08-02T12:34:34;6.63;;;5.10;;
295;SDS011;132;48.770;9.200;2022-08-02T12:37:24;7.03;;;6.70;;
295;SDS011;132;48.770;9.200;2022-08-02T12:40:21;11.50;;;5.50;;
295;SDS011;132;48.770;9.200;2022-08-02T12:43:15;6.60;;;5.10;;
295;SDS011;132;48.770;9.200;2022-08-02T12:46:06;5.50;;;4.80;;
295;SDS011;132;48.770;9.200;2022-08-02T12:49:12;5.70;;;4.80;;
295;SDS011;132;48.770;9.200;2022-08-02T12:52:23;6.20;;;4.43;;
295;SDS011;132;48.770;9.200;2022-08-02T12:55:19;6.10;;;4.67;;
295;SDS011;132;48.770;9.200;2022-08-02T12:58:08;6.70;;;4.67;;
295;SDS011;132;48.770;9.200;2022-08-02T13:00:56;7.13;;;4.67;;
295;SDS011;132;48.770;9.200;2022-08-02T13:03:45;6.30;;;4.30;;
295;SDS011;132;48.770;9.200;2022-08-02T13:06:31;5.00;;;4.50;;
295;SDS011;132;48.770;9.200;2022-08-02T13:09:18;6.77;;;4.60;;
295;SDS011;132;48.770;9.200;2022-08-02T13:12:05;5.03;;;4.70;;
295;SDS011;132;48.770;9.200;2022-08-02T13:14:53;4.57;;;4.27;;
295;SDS011;132;48.770;9.200;2022-08-02T13:17:39;9.17;;;4.50;;
295;SDS011;132;48.770;9.200;2022-08-02T13:20:27;7.27;;;5.10;;
295;SDS011;132;48.770;9.200;2022-08-02T13:23:13;5.67;;;4.90;;
295;SDS011;132;48.770;9.200;2022-08-02T13:26:01;7.80;;;4.70;;
295;SDS011;132;48.770;9.200;2022-08-02T13:28:48;4.60;;;4.30;;
295;SDS011;132;48.770;9.200;2022-08-02T13:31:35;6.90;;;5.53;;
295;SDS011;132;48.770;9.200;2022-08-02T13:34:23;8.20;;;4.13;;
295;SDS011;132;48.770;9.200;2022-08-02T13:37:10;5.87;;;4.40;;
295;SDS011;132;48.770;9.200;2022-08-02T13:39:56;4.50;;;4.20;;
295;SDS011;132;48.770;9.200;2022-08-02T13:42:43;5.20;;;4.90;;
295;SDS011;132;48.770;9.200;2022-08-02T13:45:30;5.80;;;5.13;;
295;SDS011;132;48.770;9.200;2022-08-02T13:48:16;10.37;;;9.87;;
295;SDS011;132;48.770;9.200;2022-08-02T13:51:03;11.80;;;11.20;;
295;SDS011;132;48.770;9.200;2022-08-02T13:53:51;29.73;;;28.27;;
295;SDS011;132;48.770;9.200;2022-08-02T13:56:38;588.07;;;560.00;;
295;SDS011;132;48.770;9.200;2022-08-02T13:59:25;511.93;;;487.50;;
295;SDS011;132;48.770;9.200;2022-08-02T14:02:11;761.27;;;724.97;;
295;SDS011;132;48.770;9.200;2022-08-02T14:04:58;1014.07;;;965.73;;
295;SDS011;132;48.770;9.200;2022-08-02T14:07:46;1010.53;;;962.37;;
295;SDS011;132;48.770;9.200;2022-08-02T14:10:32;958.90;;;913.20;;
295;SDS011;132;48.770;9.200;2022-08-02T14:13:19;993.23;;;945.90;;
295;SDS011;132;48.770;9.200;2022-08-02T14:16:06;916.80;;;873.07;;
295;SDS011;132;48.770;9.200;2022-08-02T14:18:52;746.23;;;710.63;;
295;SDS011;132;48.770;9.200;2022-08-02T14:21:39;311.83;;;296.93;;
295;SDS011;132;48.770;9.200;2022-08-02T14:24:25;835.83;;;795.97;;
295;SDS011;132;48.770;9.200;2022-08-02T14:27:12;945.60;;;900.53;;
295;SDS011;132;48.770;9.200;2022-08-02T14:30:00;876.37;;;834.57;;
295;SDS011;132;48.770;9.200;2022-08-02T14:32:48;4.10;;;3.90;;
295;SDS011;132;48.770;9.200;2022-08-02T14:35:35;4.90;;;4.00;;
295;SDS011;132;48.770;9.200;2022-08-02T14:38:22;4.90;;;4.23;;
295;SDS011;132;48.770;9.200;2022-08-02T14:41:09;5.90;;;4.77;;
295;SDS011;132;48.770;9.200;2022-08-02T14:43:55;4.87;;;4.33;;
295;SDS011;132;48.770;9.200;2022-08-02T14:46:52;8.33;;;6.90;;
295;SDS011;132;48.770;9.200;2022-08-02T14:49:39;1122.43;;;999.90;;
295;SDS011;132;48.770;9.200;2022-08-02T14:52:26;817.03;;;778.10;;
295;SDS011;132;48.770;9.200;2022-08-02T14:55:13;1112.97;;;999.90;;
295;SDS011;132;48.770;9.200;2022-08-02T14:58:00;5.83;;;4.50;;
295;SDS011;132;48.770;9.200;2022-08-02T15:00:46;9.83;;;4.90;;
295;SDS011;132;48.770;9.200;2022-08-02T15:03:33;4.10;;;3.77;;
295;SDS011;132;48.770;9.200;2022-08-02T15:06:19;1018.80;;;970.23;;
295;SDS011;132;48.770;9.200;2022-08-02T15:09:06;914.03;;;870.47;;
295;SDS011;132;48.770;9.200;2022-08-02T15:11:53;955.00;;;909.47;;
295;SDS011;132;48.770;9.200;2022-08-02T15:14:40;739.17;;;703.90;;
295;SDS011;132;48.770;9.200;2022-08-02T15:17:27;705.37;;;671.73;;
295;SDS011;132;48.770;9.200;2022-08-02T15:20:13;1071.13;;;999.90;;
295;SDS011;132;48.770;9.200;2022-08-02T15:23:00;1063.03;;;999.90;;
295;SDS011;132;48.770;9.200;2022-08-02T15:25:48;3.83;;;3.33;;
295;SDS011;132;48.770;9.200;2022-08-02T15:28:35;531.87;;;506.47;;
295;SDS011;132;48.770;9.200;2022-08-02T15:31:23;812.10;;;773.37;;
295;SDS011;132;48.770;9.200;2022-08-02T15:34:10;31.40;;;29.87;;
295;SDS011;132;48.770;9.200;2022-08-02T15:36:57;13.67;;;12.97;;
295;SDS011;132;48.770;9.200;2022-08-02T15:39:43;667.20;;;635.37;;
295;SDS011;132;48.770;9.200;2022-08-02T15:42:30;5.33;;;5.03;;
295;SDS011;132;48.770;9.200;2022-08-02T15:45:17;19.57;;;18.60;;
295;SDS011;132;48.770;9.200;2022-08-02T15:48:03;7.60;;;5.10;;
295;SDS011;132;48.770;9.200;2022-08-02T15:50:50;4.80;;;4.50;;
295;SDS011;132;48.770;9.200;2022-08-02T15:53:37;4.97;;;3.97;;
295;SDS011;132;48.770;9.200;2022-08-02T15:56:24;4.13;;;3.67;;
295;SDS011;132;48.770;9.200;2022-08-02T15:59:10;3.77;;;3.50;;
295;SDS011;132;48.770;9.200;2022-08-02T16:01:57;3.30;;;3.20;;
295;SDS011;132;48.770;9.200;2022-08-02T16:04:44;3.50;;;3.30;;
295;SDS011;132;48.770;9.200;2022-08-02T16:07:31;5.60;;;3.73;;
295;SDS011;132;48.770;9.200;2022-08-02T16:10:18;4.03;;;3.20;;
295;SDS011;132;48.770;9.200;2022-08-02T16:13:04;4.30;;;3.53;;
295;SDS011;132;48.770;9.200;2022-08-02T16:16:09;3.30;;;3.20;;
295;SDS011;132;48.770;9.200;2022-08-02T16:18:56;4.30;;;3.17;;
295;SDS011;132;48.770;9.200;2022-08-02T16:21:43;4.40;;;3.03;;
295;SDS011;132;48.770;9.200;2022-08-02T16:24:29;9.03;;;3.47;;
295;SDS011;132;48.770;9.200;2022-08-02T16:27:16;4.83;;;3.17;;
295;SDS011;132;48.770;9.200;2022-08-02T16:30:03;3.30;;;3.03;;
295;SDS011;132;48.770;9.200;2022-08-02T16:32:50;4.07;;;3.10;;
295;SDS011;132;48.770;9.200;2022-08-02T16:35:36;7.03;;;3.70;;
295;SDS011;132;48.770;9.200;2022-08-02T16:38:24;7.07;;;3.50;;
295;SDS011;132;48.770;9.200;2022-08-02T16:41:11;4.47;;;2.93;;
295;SDS011;132;48.770;9.200;2022-08-02T16:43:58;3.00;;;2.80;;
295;SDS011;132;48.770;9.200;2022-08-02T16:46:44;3.67;;;3.00;;
295;SDS011;132;48.770;9.200;2022-08-02T16:49:31;5.23;;;3.10;;
295;SDS011;132;48.770;9.200;2022-08-02T16:52:17;4.77;;;2.97;;
295;SDS011;132;48.770;9.200;2022-08-02T16:55:04;5.90;;;3.27;;
295;SDS011;132;48.770;9.200;2022-08-02T16:57:52;5.13;;;2.90;;
295;SDS011;132;48.770;9.200;2022-08-02T17:00:38;3.10;;;3.00;;
295;SDS011;132;48.770;9.200;2022-08-02T17:03:25;6.80;;;3.10;;
295;SDS011;132;48.770;9.200;2022-08-02T17:06:11;5.20;;;3.10;;
295;SDS011;132;48.770;9.200;2022-08-02T17:08:58;6.00;;;3.10;;
295;SDS011;132;48.770;9.200;2022-08-02T17:11:45;4.30;;;2.97;;
295;SDS011;132;48.770;9.200;2022-08-02T17:14:31;3.97;;;3.30;;
295;SDS011;132;48.770;9.200;2022-08-02T17:17:21;4.30;;;3.03;;
295;SDS011;132;48.770;9.200;2022-08-02T17:20:08;4.93;;;3.43;;
295;SDS011;132;48.770;9.200;2022-08-02T17:22:55;6.90;;;3.60;;
295;SDS011;132;48.770;9.200;2022-08-02T17:25:42;4.30;;;3.50;;
295;SDS011;132;48.770;9.200;2022-08-02T17:28:28;5.73;;;3.37;;
295;SDS011;132;48.770;9.200;2022-08-02T17:31:15;4.57;;;3.03;;
295;SDS011;132;48.770;9.200;2022-08-02T17:34:02;9.23;;;3.50;;
295;SDS011;132;48.770;9.200;2022-08-02T17:36:48;7.10;;;3.23;;
295;SDS011;132;48.770;9.200;2022-08-02T17:39:35;5.37;;;3.70;;
295;SDS011;132;48.770;9.200;2022-08-02T17:42:22;3.60;;;2.90;;
295;SDS011;132;48.770;9.200;2022-08-02T17:45:09;3.83;;;3.23;;
295;SDS011;132;48.770;9.200;2022-08-02T17:47:57;3.80;;;3.10;;
295;SDS011;132;48.770;9.200;2022-08-02T17:50:43;5.83;;;3.50;;
295;SDS011;132;48.770;9.200;2022-08-02T17:53:31;5.80;;;3.50;;
295;SDS011;132;48.770;9.200;2022-08-02T17:56:17;4.97;;;3.33;;
295;SDS011;132;48.770;9.200;2022-08-02T18:01:59;4.07;;;3.17;;
295;SDS011;132;48.770;9.200;2022-08-02T18:04:46;3.50;;;3.03;;
295;SDS011;132;48.770;9.200;2022-08-02T18:07:33;5.57;;;3.40;;
295;SDS011;132;48.770;9.200;2022-08-02T18:10:20;4.10;;;3.10;;
295;SDS011;132;48.770;9.200;2022-08-02T18:13:07;5.20;;;3.47;;
295;SDS011;132;48.770;9.200;2022-08-02T18:15:53;6.53;;;3.60;;
295;SDS011;132;48.770;9.200;2022-08-02T18:18:41;5.63;;;3.40;;
295;SDS011;132;48.770;9.200;2022-08-02T18:21:28;4.13;;;3.40;;
295;SDS011;132;48.770;9.200;2022-08-02T18:24:15;5.33;;;3.40;;
295;SDS011;132;48.770;9.200;2022-08-02T18:27:04;3.70;;;3.20;;
295;SDS011;132;48.770;9.200;2022-08-02T18:29:50;4.43;;;3.43;;
295;SDS011;132;48.770;9.200;2022-08-02T18:32:37;3.97;;;3.40;;